createdAt,value
2022-11-16T00:02:26.383Z,11.43
2022-11-16T00:04:53.377Z,10.77
2022-11-16T00:07:20.380Z,9.43
2022-11-16T00:09:47.496Z,9.27
2022-11-16T00:12:14.444Z,9.07
2022-11-16T00:14:41.430Z,8.93
2022-11-16T00:17:08.401Z,9.30
2022-11-16T00:19:35.433Z,9.23
2022-11-16T00:22:02.438Z,8.87
2022-11-16T00:24:29.413Z,8.10
2022-11-16T00:26:56.488Z,9.17
2022-11-16T00:29:25.581Z,7.93
2022-11-16T00:31:53.638Z,8.80
2022-11-16T00:34:21.197Z,7.97
2022-11-16T00:36:48.221Z,7.03
2022-11-16T00:39:16.085Z,6.77
2022-11-16T00:41:43.349Z,6.00
2022-11-16T00:44:10.676Z,7.17
2022-11-16T00:46:37.831Z,6.70
2022-11-16T00:49:05.540Z,5.97
2022-11-16T00:51:33.226Z,6.53
2022-11-16T00:54:00.473Z,6.17
2022-11-16T00:56:27.498Z,5.83
2022-11-16T00:58:54.458Z,5.30
2022-11-16T01:01:21.578Z,5.00
2022-11-16T01:03:48.729Z,5.37
2022-11-16T01:06:16.466Z,5.30
2022-11-16T01:08:44.333Z,5.40
2022-11-16T01:11:32.028Z,5.80
2022-11-16T01:13:59.171Z,4.73
2022-11-16T01:16:26.169Z,5.03
2022-11-16T01:18:54.231Z,4.87
2022-11-16T01:21:22.094Z,5.03
2022-11-16T01:23:49.073Z,5.03
2022-11-16T01:26:16.127Z,5.73
2022-11-16T01:28:43.252Z,5.53
2022-11-16T01:31:10.889Z,5.33
2022-11-16T01:33:38.230Z,5.90
2022-11-16T01:36:10.586Z,5.90
2022-11-16T01:38:37.667Z,5.70
2022-11-16T01:41:04.649Z,5.37
2022-11-16T01:43:49.214Z,6.07
2022-11-16T01:46:16.197Z,5.77
2022-11-16T01:48:43.264Z,6.28
2022-11-16T01:51:10.345Z,5.80
2022-11-16T01:53:38.094Z,5.80
2022-11-16T01:56:05.365Z,6.47
2022-11-16T01:58:32.782Z,5.50
2022-11-16T02:01:00.080Z,5.67
2022-11-16T02:03:27.522Z,5.20
2022-11-16T02:05:54.486Z,5.53
2022-11-16T02:08:50.571Z,5.20
2022-11-16T02:11:29.589Z,5.23
2022-11-16T02:14:08.904Z,5.07
2022-11-16T02:16:42.365Z,5.00
2022-11-16T02:19:12.380Z,4.60
2022-11-16T02:21:44.455Z,4.30
2022-11-16T02:24:39.058Z,4.23
2022-11-16T02:27:09.008Z,4.80
2022-11-16T02:29:41.881Z,5.07
2022-11-16T02:32:14.898Z,4.00
2022-11-16T02:34:51.004Z,4.30
2022-11-16T02:37:20.773Z,4.47
2022-11-16T02:39:49.823Z,4.33
2022-11-16T02:42:21.060Z,4.20
2022-11-16T02:44:50.255Z,4.20
2022-11-16T02:47:22.856Z,3.80
2022-11-16T02:49:52.840Z,3.50
2022-11-16T02:52:20.632Z,3.87
2022-11-16T02:54:47.584Z,3.60
2022-11-16T02:57:30.734Z,3.97
2022-11-16T02:59:58.541Z,3.50
2022-11-16T03:02:34.745Z,3.90
2022-11-16T03:05:10.206Z,3.63
2022-11-16T03:07:51.444Z,3.50
2022-11-16T03:10:37.866Z,4.00
2022-11-16T03:13:05.790Z,4.30
2022-11-16T03:15:34.906Z,4.10
2022-11-16T03:18:01.901Z,4.87
2022-11-16T03:20:32.320Z,5.00
2022-11-16T03:23:01.234Z,5.13
2022-11-16T03:25:31.473Z,5.20
2022-11-16T03:28:08.803Z,4.83
2022-11-16T03:30:43.980Z,4.73
2022-11-16T03:33:18.530Z,5.53
2022-11-16T03:35:48.666Z,5.20
2022-11-16T03:38:16.305Z,5.80
2022-11-16T03:40:44.284Z,6.40
2022-11-16T03:43:11.490Z,7.13
2022-11-16T03:45:38.832Z,7.80
2022-11-16T03:48:07.225Z,7.53
2022-11-16T03:50:34.474Z,9.47
2022-11-16T03:53:01.438Z,9.03
2022-11-16T03:55:28.429Z,9.37
2022-11-16T03:57:55.395Z,9.57
2022-11-16T04:00:22.457Z,9.40
2022-11-16T04:02:49.424Z,8.57
2022-11-16T04:05:35.053Z,8.50
2022-11-16T04:08:21.070Z,7.63
2022-11-16T04:11:06.998Z,5.23
2022-11-16T04:13:53.269Z,5.13
2022-11-16T04:16:39.070Z,4.60
2022-11-16T04:19:24.911Z,4.30
2022-11-16T04:22:12.937Z,4.50
2022-11-16T04:24:40.933Z,4.63
2022-11-16T04:27:28.493Z,4.53
2022-11-16T04:29:57.050Z,4.70
2022-11-16T04:32:59.393Z,4.30
2022-11-16T04:35:45.156Z,4.37
2022-11-16T04:38:12.111Z,4.57
2022-11-16T04:40:39.175Z,4.60
2022-11-16T04:43:06.448Z,5.17
2022-11-16T04:45:52.021Z,4.77
2022-11-16T04:48:19.674Z,4.90
2022-11-16T04:50:47.435Z,5.00
2022-11-16T04:53:14.694Z,5.17
2022-11-16T04:55:41.702Z,4.83
2022-11-16T04:58:08.660Z,5.87
2022-11-16T05:00:35.659Z,10.32
2022-11-16T05:03:04.145Z,26.83
2022-11-16T05:05:31.252Z,19.43
2022-11-16T05:07:58.363Z,10.70
2022-11-16T05:10:25.339Z,8.23
2022-11-16T05:12:52.298Z,9.03
2022-11-16T05:15:19.768Z,7.93
2022-11-16T05:17:47.362Z,7.57
2022-11-16T05:20:32.985Z,7.73
2022-11-16T05:23:00.266Z,7.00
2022-11-16T05:25:28.537Z,6.57
2022-11-16T05:27:58.315Z,7.23
2022-11-16T05:30:25.370Z,6.70
2022-11-16T05:32:52.331Z,6.20
2022-11-16T05:35:19.338Z,5.63
2022-11-16T05:37:46.297Z,6.47
2022-11-16T05:40:13.422Z,7.43
2022-11-16T05:42:40.393Z,6.87
2022-11-16T05:45:07.602Z,7.20
2022-11-16T05:47:34.591Z,6.40
2022-11-16T05:50:01.573Z,6.53
2022-11-16T05:52:28.559Z,5.80
2022-11-16T05:54:55.566Z,4.57
2022-11-16T05:57:22.532Z,5.73
2022-11-16T05:59:49.499Z,5.07
2022-11-16T06:02:16.606Z,5.57
2022-11-16T06:04:43.634Z,6.07
2022-11-16T06:07:10.621Z,5.57
2022-11-16T06:09:37.709Z,5.47
2022-11-16T06:12:04.863Z,6.73
2022-11-16T06:14:31.860Z,6.67
2022-11-16T06:16:58.804Z,6.60
2022-11-16T06:19:31.090Z,6.50
2022-11-16T06:21:59.262Z,6.57
2022-11-16T06:24:26.316Z,6.70
2022-11-16T06:26:53.268Z,6.43
2022-11-16T06:29:20.223Z,7.57
2022-11-16T06:31:47.186Z,6.20
2022-11-16T06:34:14.234Z,6.50
2022-11-16T06:36:41.247Z,6.57
2022-11-16T06:39:08.257Z,6.17
2022-11-16T06:41:40.215Z,6.00
2022-11-16T06:44:08.323Z,5.77
2022-11-16T06:46:35.328Z,6.63
2022-11-16T06:49:02.308Z,6.30
2022-11-16T06:51:29.291Z,6.40
2022-11-16T06:53:56.252Z,5.80
2022-11-16T06:56:23.285Z,7.30
2022-11-16T06:58:53.313Z,6.40
2022-11-16T07:01:20.761Z,5.60
2022-11-16T07:03:47.871Z,5.30
2022-11-16T07:06:15.149Z,5.40
2022-11-16T07:08:42.175Z,5.50
2022-11-16T07:11:10.463Z,5.53
2022-11-16T07:13:38.234Z,5.20
2022-11-16T07:16:06.397Z,5.17
2022-11-16T07:18:35.189Z,5.50
2022-11-16T07:21:12.425Z,5.33
2022-11-16T07:23:39.765Z,5.33
2022-11-16T07:26:07.721Z,5.33
2022-11-16T07:28:34.937Z,4.60
2022-11-16T07:31:07.109Z,4.20
2022-11-16T07:33:34.426Z,4.03
2022-11-16T07:36:08.917Z,4.03
2022-11-16T07:38:36.567Z,5.40
2022-11-16T07:41:04.794Z,5.27
2022-11-16T07:43:32.297Z,3.50
2022-11-16T07:46:30.303Z,2.80
2022-11-16T07:48:50.384Z,2.53
2022-11-16T07:51:17.997Z,2.10
2022-11-16T07:53:45.076Z,1.80
2022-11-16T07:56:12.540Z,1.90
2022-11-16T07:58:40.090Z,2.10
2022-11-16T08:01:13.381Z,1.90
2022-11-16T08:03:40.859Z,2.30
2022-11-16T08:06:28.188Z,1.90
2022-11-16T08:08:58.631Z,1.97
2022-11-16T08:11:26.388Z,2.00
2022-11-16T08:13:53.388Z,1.80
2022-11-16T08:16:21.790Z,2.17
2022-11-16T08:18:49.082Z,1.70
2022-11-16T08:21:16.991Z,2.33
2022-11-16T08:23:46.930Z,1.80
2022-11-16T08:26:17.990Z,1.60
2022-11-16T08:28:45.958Z,1.50
2022-11-16T08:31:16.877Z,2.37
2022-11-16T08:33:43.879Z,2.83
2022-11-16T08:36:18.240Z,2.37
2022-11-16T08:38:49.680Z,2.67
2022-11-16T08:41:17.330Z,2.70
2022-11-16T08:43:46.934Z,2.10
2022-11-16T08:46:14.139Z,2.00
2022-11-16T08:48:41.162Z,1.90
2022-11-16T08:51:18.475Z,2.00
2022-11-16T08:53:48.062Z,2.00
2022-11-16T08:56:15.692Z,1.90
2022-11-16T08:58:44.082Z,1.93
2022-11-16T09:01:13.691Z,1.50
2022-11-16T09:03:41.029Z,2.40
2022-11-16T09:06:08.523Z,2.07
2022-11-16T09:08:36.824Z,1.87
2022-11-16T09:11:08.264Z,1.97
2022-11-16T09:13:35.264Z,1.83
2022-11-16T09:16:02.483Z,1.70
2022-11-16T09:18:29.669Z,1.83
2022-11-16T09:20:56.689Z,1.87
2022-11-16T09:23:25.533Z,1.60
2022-11-16T09:25:53.747Z,1.60
2022-11-16T09:28:21.094Z,1.98
2022-11-16T09:30:49.525Z,1.80
2022-11-16T09:33:16.545Z,2.00
2022-11-16T09:35:43.612Z,1.50
2022-11-16T09:38:11.884Z,1.50
2022-11-16T09:40:44.062Z,1.97
2022-11-16T09:43:20.144Z,2.20
2022-11-16T09:45:52.325Z,1.77
2022-11-16T09:48:20.478Z,1.53
2022-11-16T09:50:58.062Z,1.70
2022-11-16T09:53:34.193Z,1.80
2022-11-16T09:56:04.376Z,1.80
2022-11-16T09:58:44.154Z,1.47
2022-11-16T10:01:21.880Z,2.00
2022-11-16T10:03:51.193Z,2.00
2022-11-16T10:06:21.724Z,1.50
2022-11-16T10:08:51.195Z,1.90
2022-11-16T10:11:36.234Z,1.60
2022-11-16T10:14:09.336Z,1.93
2022-11-16T10:16:40.966Z,2.00
2022-11-16T10:19:17.720Z,1.30
2022-11-16T10:21:47.788Z,1.60
2022-11-16T10:24:24.454Z,1.60
2022-11-16T10:26:59.477Z,1.40
2022-11-16T10:29:36.625Z,1.40
2022-11-16T10:32:42.310Z,1.40
2022-11-16T10:35:15.706Z,1.43
2022-11-16T10:37:48.588Z,1.70
2022-11-16T10:40:20.735Z,1.30
2022-11-16T10:42:51.932Z,1.43
2022-11-16T10:45:29.698Z,1.50
2022-11-16T10:48:08.388Z,1.60
2022-11-16T10:50:40.058Z,1.30
2022-11-16T10:53:07.191Z,1.30
2022-11-16T10:55:34.247Z,1.70
2022-11-16T10:58:02.347Z,1.30
2022-11-16T11:00:44.525Z,1.70
2022-11-16T11:03:11.954Z,1.43
2022-11-16T11:05:47.848Z,1.30
2022-11-16T11:08:24.513Z,1.50
2022-11-16T11:10:58.329Z,1.20
2022-11-16T11:13:28.392Z,1.40
2022-11-16T11:16:13.652Z,1.40
2022-11-16T11:18:40.604Z,1.40
2022-11-16T11:21:11.628Z,1.40
2022-11-16T11:23:41.685Z,1.35
2022-11-16T11:26:09.455Z,1.10
2022-11-16T11:28:46.405Z,1.30
2022-11-16T11:31:32.178Z,1.30
2022-11-16T11:34:01.965Z,1.50
2022-11-16T11:36:38.441Z,1.37
2022-11-16T11:39:07.056Z,1.20
2022-11-16T11:41:35.355Z,1.47
2022-11-16T11:44:06.692Z,1.30
2022-11-16T11:47:06.705Z,1.17
2022-11-16T11:49:32.029Z,1.40
2022-11-16T11:52:12.238Z,1.30
2022-11-16T11:54:45.849Z,1.90
2022-11-16T11:57:20.501Z,1.50
2022-11-16T11:59:47.806Z,1.60
2022-11-16T12:02:17.618Z,1.97
2022-11-16T12:05:01.976Z,2.67
2022-11-16T12:07:36.920Z,1.80
2022-11-16T12:10:07.131Z,1.77
2022-11-16T12:12:34.075Z,1.33
2022-11-16T12:15:09.006Z,1.50
2022-11-16T12:17:42.117Z,1.47
2022-11-16T12:20:17.205Z,1.20
2022-11-16T12:22:52.178Z,1.40
2022-11-16T12:25:30.582Z,1.30
2022-11-16T12:28:10.457Z,1.47
2022-11-16T12:30:56.793Z,0.97
2022-11-16T12:33:38.203Z,1.63
2022-11-16T12:36:13.143Z,0.90
2022-11-16T12:38:48.148Z,1.50
2022-11-16T12:41:27.377Z,1.37
2022-11-16T12:44:00.409Z,1.10
2022-11-16T12:46:36.479Z,1.40
2022-11-16T12:49:18.892Z,1.20
2022-11-16T12:51:55.232Z,1.17
2022-11-16T12:54:34.077Z,1.50
2022-11-16T12:57:19.741Z,1.50
2022-11-16T13:00:00.289Z,1.47
2022-11-16T13:02:35.035Z,1.40
2022-11-16T13:05:12.667Z,1.30
2022-11-16T13:07:44.456Z,1.13
2022-11-16T13:10:22.545Z,1.20
2022-11-16T13:12:55.746Z,1.07
2022-11-16T13:15:38.537Z,1.00
2022-11-16T13:18:07.349Z,1.20
2022-11-16T13:20:55.070Z,0.90
2022-11-16T13:23:38.708Z,1.53
2022-11-16T13:26:25.114Z,1.20
2022-11-16T13:28:52.134Z,1.30
2022-11-16T13:31:29.562Z,1.43
2022-11-16T13:34:01.869Z,1.27
2022-11-16T13:36:43.286Z,1.13
2022-11-16T13:39:11.333Z,1.60
2022-11-16T13:41:40.022Z,1.40
2022-11-16T13:44:13.064Z,1.03
2022-11-16T13:46:58.694Z,1.73
2022-11-16T13:49:25.836Z,1.30
2022-11-16T13:51:54.786Z,1.30
2022-11-16T13:54:46.007Z,1.33
2022-11-16T13:57:27.534Z,1.77
2022-11-16T14:00:04.904Z,1.20
2022-11-16T14:02:36.446Z,1.30
2022-11-16T14:05:06.464Z,1.60
2022-11-16T14:07:42.823Z,3.03
2022-11-16T14:10:11.253Z,3.67
2022-11-16T14:12:38.265Z,2.83
2022-11-16T14:15:15.434Z,1.70
2022-11-16T14:17:59.745Z,1.90
2022-11-16T14:20:26.717Z,1.80
2022-11-16T14:23:17.035Z,1.80
2022-11-16T14:25:47.076Z,1.30
2022-11-16T14:28:14.108Z,1.40
2022-11-16T14:30:59.839Z,1.20
2022-11-16T14:33:32.845Z,1.48
2022-11-16T14:36:00.867Z,1.43
2022-11-16T14:38:36.074Z,1.43
2022-11-16T14:41:04.040Z,1.33
2022-11-16T14:43:31.082Z,1.53
2022-11-16T14:46:01.008Z,1.80
2022-11-16T14:48:28.606Z,1.47
2022-11-16T14:51:13.225Z,1.63
2022-11-16T14:53:42.328Z,1.60
2022-11-16T14:56:10.984Z,1.50
2022-11-16T14:58:38.377Z,1.60
2022-11-16T15:01:13.502Z,1.43
2022-11-16T15:03:43.139Z,1.77
2022-11-16T15:06:10.270Z,2.20
2022-11-16T15:08:37.227Z,2.20
2022-11-16T15:11:14.772Z,2.30
2022-11-16T15:13:46.430Z,1.83
2022-11-16T15:16:18.269Z,1.87
2022-11-16T15:19:01.640Z,1.57
2022-11-16T15:21:29.441Z,1.50
2022-11-16T15:26:43.658Z,1.47
2022-11-16T15:29:21.206Z,2.33
2022-11-16T15:31:49.030Z,2.33
2022-11-16T15:34:20.325Z,2.00
2022-11-16T15:36:48.712Z,1.77
2022-11-16T15:39:23.232Z,1.60
2022-11-16T15:41:50.792Z,2.63
2022-11-16T15:44:19.913Z,2.53
2022-11-16T15:46:48.339Z,2.20
2022-11-16T15:49:35.627Z,2.40
2022-11-16T15:52:02.718Z,1.77
2022-11-16T15:54:51.102Z,2.20
2022-11-16T15:57:18.954Z,2.07
2022-11-16T15:59:50.984Z,1.77
2022-11-16T16:02:29.553Z,2.70
2022-11-16T16:04:56.298Z,2.20
2022-11-16T16:07:40.665Z,2.73
2022-11-16T16:10:24.339Z,2.30
2022-11-16T16:12:52.034Z,2.37
2022-11-16T16:15:40.150Z,2.77
2022-11-16T16:18:36.121Z,2.37
2022-11-16T16:21:03.066Z,2.53
2022-11-16T16:23:29.603Z,2.70
2022-11-16T16:25:56.134Z,3.00
2022-11-16T16:28:22.680Z,3.30
2022-11-16T16:30:50.933Z,4.27
2022-11-16T16:33:19.538Z,3.50
2022-11-16T16:35:49.563Z,3.27
2022-11-16T16:38:16.140Z,3.70
2022-11-16T16:40:42.689Z,3.13
2022-11-16T16:43:09.227Z,3.07
2022-11-16T16:45:45.373Z,3.53
2022-11-16T16:48:12.610Z,2.70
2022-11-16T16:50:39.515Z,2.57
2022-11-16T16:53:06.263Z,2.77
2022-11-16T16:55:37.467Z,2.97
2022-11-16T16:58:04.594Z,2.67
2022-11-16T17:00:31.357Z,2.30
2022-11-16T17:03:01.041Z,3.20
2022-11-16T17:05:27.579Z,2.97
2022-11-16T17:07:56.954Z,3.43
2022-11-16T17:10:23.717Z,4.90
2022-11-16T17:12:53.788Z,2.97
2022-11-16T17:15:20.397Z,3.60
2022-11-16T17:17:47.276Z,3.17
2022-11-16T17:20:14.190Z,3.40
2022-11-16T17:22:41.786Z,3.23
2022-11-16T17:25:09.159Z,2.70
2022-11-16T17:27:35.926Z,2.47
2022-11-16T17:30:02.772Z,2.10
2022-11-16T17:32:30.374Z,2.60
2022-11-16T17:34:56.909Z,2.33
2022-11-16T17:37:23.444Z,2.58
2022-11-16T17:39:49.981Z,2.33
2022-11-16T17:42:16.537Z,2.13
2022-11-16T17:44:43.072Z,2.30
2022-11-16T17:47:09.652Z,2.07
2022-11-16T17:49:36.187Z,2.00
2022-11-16T17:52:02.891Z,2.50
2022-11-16T17:54:29.428Z,1.87
2022-11-16T17:56:55.962Z,2.60
2022-11-16T17:59:27.962Z,3.17
2022-11-16T18:01:57.532Z,3.13
2022-11-16T18:04:24.440Z,3.30
2022-11-16T18:06:51.056Z,3.10
2022-11-16T18:09:18.605Z,3.57
2022-11-16T18:11:45.162Z,3.60
2022-11-16T18:14:11.689Z,3.50
2022-11-16T18:16:40.924Z,4.00
2022-11-16T18:19:07.590Z,6.27
2022-11-16T18:21:41.796Z,4.47
2022-11-16T18:24:09.256Z,4.37
2022-11-16T18:26:36.786Z,3.67
2022-11-16T18:29:04.062Z,3.30
2022-11-16T18:31:32.918Z,3.07
2022-11-16T18:34:01.355Z,4.83
2022-11-16T18:36:27.943Z,3.97
2022-11-16T18:38:54.541Z,4.90
2022-11-16T18:41:24.817Z,6.30
2022-11-16T18:43:56.995Z,4.87
2022-11-16T18:46:25.656Z,3.97
2022-11-16T18:48:52.760Z,3.37
2022-11-16T18:51:20.795Z,4.77
2022-11-16T18:53:47.505Z,4.83
2022-11-16T18:56:14.577Z,5.80
2022-11-16T18:58:51.345Z,6.80
2022-11-16T19:01:20.991Z,6.13
2022-11-16T19:03:47.906Z,4.70
2022-11-16T19:06:15.579Z,4.83
2022-11-16T19:08:42.678Z,5.03
2022-11-16T19:11:12.258Z,4.03
2022-11-16T19:13:40.243Z,5.07
2022-11-16T19:16:07.883Z,6.20
2022-11-16T19:18:35.967Z,6.20
2022-11-16T19:21:10.430Z,5.57
2022-11-16T19:23:44.799Z,6.50
2022-11-16T19:26:13.058Z,5.93
2022-11-16T19:28:42.049Z,5.77
2022-11-16T19:31:09.846Z,5.47
2022-11-16T19:33:37.012Z,7.83
2022-11-16T19:36:15.158Z,6.60
2022-11-16T19:38:43.517Z,6.83
2022-11-16T19:41:12.144Z,7.63
2022-11-16T19:43:39.023Z,7.40
2022-11-16T19:46:07.868Z,7.90
2022-11-16T19:48:34.818Z,8.73
2022-11-16T19:51:09.557Z,8.57
2022-11-16T19:53:37.143Z,8.73
2022-11-16T19:56:05.167Z,7.73
2022-11-16T19:58:33.825Z,8.17
2022-11-16T20:01:02.598Z,7.60
2022-11-16T20:03:30.637Z,8.57
2022-11-16T20:06:09.019Z,7.93
2022-11-16T20:08:36.414Z,7.13
2022-11-16T20:11:12.036Z,5.73
2022-11-16T20:13:38.741Z,5.27
2022-11-16T20:16:07.028Z,6.67
2022-11-16T20:18:33.782Z,5.63
2022-11-16T20:21:02.137Z,7.87
2022-11-16T20:23:28.923Z,7.80
2022-11-16T20:25:55.523Z,7.73
2022-11-16T20:28:22.074Z,7.50
2022-11-16T20:30:48.784Z,7.03
2022-11-16T20:33:15.411Z,6.93
2022-11-16T20:35:42.157Z,6.50
2022-11-16T20:38:08.770Z,6.33
2022-11-16T20:40:35.363Z,5.80
2022-11-16T20:43:02.173Z,6.17
2022-11-16T20:45:33.297Z,5.93
2022-11-16T20:48:00.190Z,4.93
2022-11-16T20:50:27.223Z,5.75
2022-11-16T20:52:53.810Z,5.33
2022-11-16T20:55:20.767Z,4.77
2022-11-16T20:57:47.303Z,5.10
2022-11-16T21:00:14.451Z,4.70
2022-11-16T21:02:41.084Z,5.00
2022-11-16T21:05:08.018Z,4.93
2022-11-16T21:07:34.651Z,6.67
2022-11-16T21:10:19.568Z,4.90
2022-11-16T21:13:04.643Z,5.93
2022-11-16T21:15:31.274Z,5.57
2022-11-16T21:17:57.964Z,8.70
2022-11-16T21:20:28.632Z,4.40
2022-11-16T21:22:55.414Z,5.57
2022-11-16T21:25:21.945Z,9.75
2022-11-16T21:27:48.637Z,4.97
2022-11-16T21:30:15.549Z,4.60
2022-11-16T21:32:42.139Z,5.70
2022-11-16T21:35:08.914Z,6.60
2022-11-16T21:37:35.452Z,4.90
2022-11-16T21:40:01.983Z,5.63
2022-11-16T21:42:28.517Z,8.13
2022-11-16T21:44:55.065Z,6.40
2022-11-16T21:47:21.716Z,5.37
2022-11-16T21:50:24.397Z,4.80
2022-11-16T21:52:34.775Z,4.33
2022-11-16T21:55:01.338Z,4.93
2022-11-16T21:57:27.962Z,3.87
2022-11-16T21:59:54.570Z,3.47
2022-11-16T22:02:21.144Z,3.63
2022-11-16T22:05:06.471Z,4.07
2022-11-16T22:07:33.086Z,3.63
2022-11-16T22:10:03.498Z,3.30
2022-11-16T22:12:30.331Z,3.63
2022-11-16T22:14:57.535Z,3.03
2022-11-16T22:17:24.767Z,4.50
2022-11-16T22:19:51.332Z,3.93
2022-11-16T22:22:17.889Z,4.40
2022-11-16T22:24:44.773Z,5.60
2022-11-16T22:27:11.865Z,5.50
2022-11-16T22:29:38.426Z,5.53
2022-11-16T22:32:05.077Z,5.53
2022-11-16T22:34:31.636Z,4.70
2022-11-16T22:36:58.195Z,4.77
2022-11-16T22:39:24.764Z,5.35
2022-11-16T22:41:51.325Z,4.30
2022-11-16T22:44:17.871Z,4.37
2022-11-16T22:46:44.476Z,3.90
2022-11-16T22:49:11.055Z,3.47
2022-11-16T22:51:37.838Z,3.43
2022-11-16T22:54:05.336Z,3.50
2022-11-16T22:56:33.139Z,3.70
2022-11-16T22:59:02.337Z,3.67
2022-11-16T23:01:29.230Z,3.60
2022-11-16T23:03:55.781Z,4.60
2022-11-16T23:06:22.447Z,5.27
2022-11-16T23:08:49.008Z,3.70
2022-11-16T23:11:42.590Z,4.03
2022-11-16T23:14:33.119Z,3.40
2022-11-16T23:17:00.167Z,3.60
2022-11-16T23:19:46.066Z,3.45
2022-11-16T23:22:34.327Z,3.33
2022-11-16T23:25:19.954Z,3.20
2022-11-16T23:27:54.124Z,3.20
2022-11-16T23:30:21.258Z,3.03
2022-11-16T23:32:47.985Z,3.43
2022-11-16T23:35:14.673Z,2.93
2022-11-16T23:37:58.343Z,2.83
2022-11-16T23:40:27.849Z,3.20
2022-11-16T23:43:14.121Z,3.20
2022-11-16T23:45:41.368Z,3.07
2022-11-16T23:48:09.555Z,3.40
2022-11-16T23:50:36.524Z,3.00
2022-11-16T23:53:04.426Z,3.27
2022-11-16T23:55:32.813Z,3.60
2022-11-16T23:57:59.851Z,3.67
